Latest Coastal Weather Observations for Innisfail Aero

IDQ60701

Issued at 12:13 am EST Thursday 11 August 2022 (issued every 10 minutes, with the page automatically refreshed every 10 minutes)

About coastal observations | Map of coastal stations | Coastal observations for QLD | Marine services | Other Formats
Station Details ID: 032197 Name: INNISFAIL AERODROME Lat: -17.56 Lon: 146.01 Height: 11.84 m
Data from the previous 72 hours. | See also: Recent months at Innisfail Aero
Date/Time
EST
Wind Sea
Height
m
Swell Vis
km
Cloud Weather Temp
°C
Press
MSL
hPa
Rain since
9am
mm
Dir  Spd
kts
Gust
kts
Height
m
Period
s
Dir
11/12:00am S 7 9 - - - - 10 Cloudy - 19.4 1019.0 0.4
 
Date/Time
EST
Wind Sea
Height
m
Swell Vis
km
Cloud Weather Temp
°C
Press
MSL
hPa
Rain since
9am
mm
Dir  Spd
kts
Gust
kts
Height
m
Period
s
Dir
10/11:30pm WSW 3 4 - - - - 10 Partly cloudy - 18.0 1019.1 0.4
10/11:00pm SW 5 5 - - - - 10 Partly cloudy - 18.3 1019.4 0.4
10/10:30pm SW 5 6 - - - - 10 Partly cloudy - 18.1 1019.5 0.4
10/10:00pm SW 6 6 - - - - 10 Partly cloudy - 18.7 1019.5 0.4
10/09:30pm S 5 7 - - - - 10 Partly cloudy - 19.2 1019.6 0.4
10/09:00pm SSE 3 7 - - - - 10 Cloudy Rain 19.0 1019.6 0.2
10/08:30pm SSW 7 8 - - - - 10 Partly cloudy - 19.9 1019.2 0.0
10/08:00pm SSW 7 9 - - - - 10 Partly cloudy - 19.3 1019.0 0.0
10/07:30pm SSW 7 9 - - - - 10 Partly cloudy - 19.7 1018.7 0.0
10/07:00pm SSW 6 9 - - - - 10 Partly cloudy - 19.8 1018.5 0.0
10/06:30pm S 7 10 - - - - 10 Partly cloudy - 19.9 1018.2 0.0
10/06:00pm SSE 10 15 - - - - 10 Mostly cloudy - 20.3 1018.0 0.0
10/05:30pm SSE 11 15 - - - - 10 Partly cloudy - 21.5 1017.7 0.0
10/05:00pm S 12 16 - - - - 10 Partly cloudy - 21.6 1017.5 0.0
10/04:30pm S 15 20 - - - - 10 Partly cloudy - 21.5 1017.3 0.0
10/04:00pm S 15 21 - - - - 10 Partly cloudy - 22.0 1017.3 0.0
10/03:30pm S 14 20 - - - - 10 Partly cloudy - 21.4 1017.3 0.0
10/03:00pm SSE 15 19 - - - - 10 Cloudy - 22.0 1017.4 0.0
10/02:30pm SSE 16 19 - - - - 10 Partly cloudy - 21.6 1017.6 0.0
10/02:00pm S 14 18 - - - - 10 Partly cloudy - 21.6 1017.7 0.0
10/01:30pm S 14 19 - - - - 10 Partly cloudy - 22.5 1018.0 0.0
10/01:00pm SSE 15 20 - - - - 10 Partly cloudy - 21.8 1018.3 0.0
10/12:30pm S 15 19 - - - - 10 Partly cloudy - 21.4 1018.7 0.0
10/12:00pm S 15 20 - - - - 10 Cloudy - 22.3 1019.1 0.0
10/11:30am S 13 19 - - - - 10 Partly cloudy - 21.7 1019.5 0.0
10/11:00am S 10 17 - - - - 10 Partly cloudy - 22.0 1019.7 0.0
10/10:30am S 11 14 - - - - 10 Partly cloudy - 21.2 1020.2 0.0
10/10:00am SSW 9 12 - - - - 10 Partly cloudy - 22.4 1020.2 0.0
10/09:30am S 8 11 - - - - 10 Partly cloudy - 21.2 1020.1 0.0
10/09:00am SW 4 6 - - - - 10 - - 19.7 1019.9 0.0
10/08:30am CALM 0 0 - - - - 10 Partly cloudy - 17.5 1019.8 0.0
10/08:00am CALM 0 0 - - - - 10 - - 15.5 1019.7 0.0
10/07:30am WSW 2 3 - - - - 10 Partly cloudy - 14.0 1019.5 0.0
10/07:28am WSW 2 3 - - - - 10 Partly cloudy - 14.0 1019.5 0.0
10/07:00am CALM 0 0 - - - - 3 Partly cloudy - 12.5 1019.2 0.0
10/06:43am CALM 0 0 - - - - 5 - - 11.7 1018.9 0.0
10/06:30am CALM 0 0 - - - - 10 Partly cloudy - 12.0 1018.7 0.0
10/06:00am CALM 0 0 - - - - 10 Mostly clear - 12.5 1018.3 0.0
10/05:47am CALM 0 0 - - - - 10 Partly cloudy - 12.8 1018.0 0.0
10/05:32am CALM 0 0 - - - - 1 Partly cloudy - 12.5 1017.8 0.0
10/05:30am CALM 0 0 - - - - 0.8 Partly cloudy - 12.6 1017.8 0.0
10/05:21am CALM 0 0 - - - - 0.9 - - 13.2 1017.8 0.0
10/05:00am CALM 0 0 - - - - 1 Partly cloudy - 13.1 1017.6 0.0
10/04:50am CALM 0 0 - - - - 4 Partly cloudy - 12.9 1017.5 0.0
10/04:47am CALM 0 0 - - - - 10 Partly cloudy - 12.8 1017.5 0.0
10/04:30am CALM 0 0 - - - - 5 Partly cloudy - 13.1 1017.5 0.0
10/04:26am CALM 0 0 - - - - 5 Partly cloudy - 13.1 1017.4 0.0
10/04:05am CALM 0 0 - - - - 10 Partly cloudy - 13.5 1017.4 0.0
10/04:00am CALM 0 0 - - - - 10 Partly cloudy - 13.7 1017.4 0.0
10/03:49am CALM 0 0 - - - - 1 Partly cloudy - 13.0 1017.5 0.0
10/03:38am CALM 0 0 - - - - 0.8 Partly cloudy - 12.7 1017.7 0.0
10/03:33am WSW 1 3 - - - - 4 Partly cloudy - 12.7 1017.7 0.0
10/03:30am WSW 2 4 - - - - 10 Partly cloudy - 13.4 1017.8 0.0
10/03:00am WSW 3 5 - - - - 10 - - 14.0 1018.0 0.0
10/02:30am CALM 0 0 - - - - 10 - - 14.4 1018.1 0.0
10/02:00am WSW 2 3 - - - - 10 Partly cloudy - 14.8 1018.3 0.0
10/01:30am WSW 1 4 - - - - 10 Partly cloudy - 14.1 1018.5 0.0
10/01:00am CALM 0 0 - - - - 10 Partly cloudy - 14.9 1018.5 0.0
10/12:30am CALM 0 0 - - - - 10 Partly cloudy - 15.6 1018.8 0.0
10/12:00am CALM 0 0 - - - - 10 Mostly cloudy - 15.9 1018.9 0.0
 
Date/Time
EST
Wind Sea
Height
m
Swell Vis
km
Cloud Weather Temp
°C
Press
MSL
hPa
Rain since
9am
mm
Dir  Spd
kts
Gust
kts
Height
m
Period
s
Dir
09/11:30pm CALM 0 0 - - - - 10 Partly cloudy - 16.5 1019.3 0.0
09/11:00pm WSW 5 6 - - - - 10 Partly cloudy - 17.1 1019.4 0.0
09/10:30pm WSW 6 8 - - - - 10 Partly cloudy - 16.8 1019.3 0.0
09/10:00pm SW 5 6 - - - - 10 Partly cloudy - 16.9 1019.3 0.0
09/09:30pm WSW 5 6 - - - - 10 Partly cloudy - 17.9 1019.2 0.0
09/09:00pm SW 5 5 - - - - 10 Cloudy - 17.9 1019.1 0.0
09/08:30pm WSW 5 6 - - - - 10 Partly cloudy - 17.9 1018.9 0.0
09/08:00pm SW 4 5 - - - - 10 Partly cloudy - 17.5 1018.5 0.0
09/07:30pm SW 3 5 - - - - 10 Partly cloudy - 16.8 1018.0 0.0
09/07:00pm SW 4 5 - - - - 10 - - 16.4 1017.4 0.0
09/06:30pm S 5 7 - - - - 10 - - 16.9 1017.1 0.0
09/06:00pm SSE 6 8 - - - - 10 Mostly clear - 18.2 1016.8 0.0
09/05:30pm SSE 9 11 - - - - 10 Partly cloudy - 19.9 1016.5 0.0
09/05:00pm S 12 14 - - - - 10 Cloudy - 20.8 1016.1 0.0
09/04:30pm SSE 12 16 - - - - 10 Partly cloudy - 21.0 1015.8 0.0
09/04:00pm SSE 13 18 - - - - 10 Partly cloudy - 21.1 1015.5 0.0
09/03:30pm S 10 15 - - - - 10 Partly cloudy - 20.9 1015.4 0.0
09/03:00pm SSW 7 9 - - - - 10 Cloudy - 20.3 1015.5 0.0
09/02:30pm SSW 7 9 - - - - 10 Partly cloudy - 20.2 1015.7 0.0
09/02:00pm SSW 9 11 - - - - 10 Partly cloudy - 20.3 1016.0 0.0
09/01:30pm SSW 9 12 - - - - 10 Partly cloudy - 20.9 1016.5 0.0
09/01:00pm SSW 10 13 - - - - 10 Partly cloudy - 20.9 1016.9 0.0
09/12:30pm SSW 9 13 - - - - 10 Partly cloudy - 21.5 1017.2 0.0
09/12:00pm S 10 13 - - - - 10 Cloudy - 21.7 1017.6 0.0
09/11:30am S 11 16 - - - - 10 Partly cloudy - 21.9 1018.0 0.0
09/11:00am SSE 11 14 - - - - 10 Partly cloudy - 21.5 1018.2 0.0
09/10:30am SSE 13 17 - - - - 10 Partly cloudy - 22.1 1018.3 0.0
09/10:00am SSE 12 15 - - - - 10 Cloudy - 21.5 1018.6 0.0
09/09:30am SSE 12 15 - - - - 10 Partly cloudy - 21.3 1018.7 0.0
09/09:00am SSE 13 19 - - - - 10 Cloudy - 21.7 1018.5 2.0
09/08:30am SSE 13 16 - - - - 10 Partly cloudy - 21.6 1018.2 2.0
09/08:00am SSE 13 18 - - - - 10 Partly cloudy - 21.5 1017.8 2.0
09/07:30am SSE 9 14 - - - - 10 Partly cloudy - 21.6 1017.4 2.0
09/07:00am S 6 8 - - - - 10 Partly cloudy - 20.0 1017.4 2.0
09/06:30am SSE 5 7 - - - - 10 Partly cloudy - 19.5 1017.0 2.0
09/06:00am SSE 7 8 - - - - 10 Cloudy - 19.7 1016.7 2.0
09/05:30am SSE 8 14 - - - - 10 Partly cloudy - 20.6 1016.4 2.0
09/05:00am SSE 8 10 - - - - 10 Partly cloudy - 20.5 1016.2 2.0
09/04:30am SSW 5 7 - - - - 10 Partly cloudy - 19.9 1016.0 2.0
09/04:00am S 6 8 - - - - 10 Partly cloudy - 20.1 1015.9 2.0
09/03:30am S 5 6 - - - - 10 Partly cloudy - 19.9 1015.8 2.0
09/03:00am SSW 5 7 - - - - 10 Cloudy - 19.9 1016.0 2.0
09/02:30am SW 5 6 - - - - 10 Partly cloudy - 19.8 1016.2 2.0
09/02:00am SSW 5 6 - - - - 10 Partly cloudy - 19.9 1016.3 2.0
09/01:30am SW 3 5 - - - - 10 Partly cloudy - 19.7 1016.6 2.0
09/01:00am SW 3 4 - - - - 10 Partly cloudy - 19.8 1016.8 2.0
09/12:30am SW 5 7 - - - - 10 Partly cloudy - 20.0 1016.9 2.0
09/12:00am WSW 6 7 - - - - 10 Cloudy Showers 19.8 1016.9 2.0
 
Date/Time
EST
Wind Sea
Height
m
Swell Vis
km
Cloud Weather Temp
°C
Press
MSL
hPa
Rain since
9am
mm
Dir  Spd
kts
Gust
kts
Height
m
Period
s
Dir
08/11:30pm SW 7 9 - - - - 10 Partly cloudy - 20.1 1017.0 2.0
08/11:00pm WSW 7 9 - - - - 10 Partly cloudy - 20.0 1017.0 2.0
08/10:30pm SW 7 9 - - - - 10 Partly cloudy - 20.0 1016.9 1.8
08/10:00pm WSW 7 9 - - - - 10 Partly cloudy - 20.1 1016.9 1.8
08/09:30pm SW 6 8 - - - - 10 Partly cloudy - 20.1 1016.9 1.8
08/09:00pm SW 7 10 - - - - 10 Cloudy - 20.2 1016.7 1.8
08/08:30pm SSW 8 11 - - - - 10 Partly cloudy - 20.2 1016.6 1.8
08/08:00pm SSW 8 11 - - - - 10 Cloudy - 20.2 1016.4 1.8
08/07:30pm SSW 9 12 - - - - 10 Cloudy - 20.3 1016.2 1.8
08/07:00pm SSW 8 11 - - - - 10 Cloudy - 20.7 1015.8 1.8
08/06:30pm SSW 7 10 - - - - 10 Cloudy - 20.9 1015.5 1.8
08/06:01pm S 8 9 - - - - 10 Cloudy - 21.3 1015.1 1.6
08/06:00pm S 8 10 - - - - 10 Mostly cloudy Rain 21.3 1015.1 1.6
08/05:30pm SSE 11 15 - - - - 6 Partly cloudy - 21.5 1014.9 1.4
08/05:00pm S 6 9 - - - - 10 Cloudy - 21.9 1014.7 0.8
08/04:30pm S 7 9 - - - - 10 Partly cloudy - 21.7 1014.5 0.8
08/04:00pm SSE 13 16 - - - - 10 Partly cloudy - 22.9 1014.3 0.6
08/03:38pm SSE 14 18 - - - - 10 Partly cloudy - 23.2 1014.2 0.6
08/03:30pm SSE 13 19 - - - - 10 Partly cloudy - 23.3 1014.2 0.6
08/03:16pm SSE 12 16 - - - - 10 Partly cloudy - 23.1 1014.2 0.6
08/03:00pm SSE 14 19 - - - - 10 Cloudy Rain 22.5 1014.2 0.6
08/02:58pm SSE 14 17 - - - - 10 Partly cloudy - 22.5 1014.2 0.6
08/02:54pm SE 14 17 - - - - 10 Partly cloudy - 23.0 1014.2 0.6
08/02:38pm SE 13 18 - - - - 10 Partly cloudy - 23.4 1014.3 0.6
08/02:30pm SE 12 16 - - - - 10 Partly cloudy - 24.1 1014.3 0.6
08/02:20pm SE 13 17 - - - - 10 Partly cloudy - 23.9 1014.5 0.6
08/02:00pm SSE 13 17 - - - - 10 Partly cloudy - 23.7 1014.7 0.6
08/01:52pm SE 12 16 - - - - 10 Partly cloudy - 23.7 1014.8 0.6
08/01:48pm SE 12 16 - - - - 10 Partly cloudy - 23.8 1014.8 0.6
08/01:36pm SSE 13 16 - - - - 10 Partly cloudy - 23.9 1014.9 0.6
08/01:32pm SSE 14 17 - - - - 10 Partly cloudy - 23.8 1014.9 0.6
08/01:30pm SSE 13 17 - - - - 10 Partly cloudy - 23.7 1015.0 0.6
08/01:21pm SE 15 20 - - - - 10 Partly cloudy - 23.8 1015.1 0.6
08/01:00pm SE 12 16 - - - - 10 Partly cloudy - 24.8 1015.4 0.6
08/12:41pm SE 12 16 - - - - 10 Partly cloudy - 23.1 1015.6 0.6
08/12:30pm SSE 15 20 - - - - 10 Partly cloudy - 23.0 1015.7 0.6
08/12:00pm SE 12 16 - - - - 10 Cloudy Rain 23.4 1016.0 0.0
08/11:59am SE 13 16 - - - - 10 Partly cloudy - 23.4 1016.0 0.0
08/11:30am SE 11 15 - - - - 10 Partly cloudy - 24.2 1016.3 0.0
08/11:00am SE 12 18 - - - - 10 Partly cloudy - 24.3 1016.5 0.0
08/10:30am SSE 12 16 - - - - 10 Partly cloudy - 25.0 1016.6 0.0
08/10:27am SE 13 17 - - - - 10 Partly cloudy - 24.9 1016.7 0.0
08/10:00am SSE 9 11 - - - - 10 Partly cloudy - 23.8 1017.0 0.0
08/09:30am S 4 6 - - - - 10 Partly cloudy - 23.2 1017.1 0.0
08/09:22am S 4 6 - - - - 10 Partly cloudy - 23.1 1017.0 0.0
08/09:19am S 4 6 - - - - 10 Partly cloudy - 23.0 1017.0 0.0
08/09:00am S 5 6 - - - - 10 Cloudy Rain 22.5 1016.9 2.6
08/08:30am WSW 2 4 - - - - 10 Partly cloudy - 21.3 1016.5 2.6
08/08:00am CALM 0 0 - - - - 10 Partly cloudy - 20.7 1016.4 2.6
08/07:30am NNE 1 3 - - - - 10 Partly cloudy - 20.3 1016.1 2.6
08/07:17am NNE 1 3 - - - - 5 Partly cloudy - 20.3 1016.0 2.6
08/07:00am NNE 2 3 - - - - 10 Partly cloudy - 20.2 1015.8 1.8
08/06:30am CALM 0 0 - - - - 10 Cloudy - 20.2 1015.4 1.8
08/06:00am W 3 4 - - - - 10 Cloudy Rain 20.1 1015.2 1.8
08/05:30am SW 4 5 - - - - 10 Partly cloudy - 20.2 1014.8 1.8
08/05:00am CALM 0 0 - - - - 10 Partly cloudy - 20.1 1014.7 1.8
08/04:30am CALM 0 0 - - - - 10 Partly cloudy - 20.0 1014.6 1.8
08/04:21am CALM 0 0 - - - - 10 Partly cloudy - 19.9 1014.5 1.6
08/04:08am WSW 1 3 - - - - 5 Partly cloudy - 19.9 1014.5 1.6
08/04:00am CALM 0 0 - - - - 10 Partly cloudy - 19.9 1014.5 0.8
08/03:30am CALM 0 0 - - - - 10 Partly cloudy - 20.0 1014.5 0.8
08/03:00am CALM 0 0 - - - - 10 Cloudy Showers 19.8 1014.6 0.8
08/02:44am SE 4 6 - - - - 10 Partly cloudy - 19.7 1014.7 0.8
08/02:30am CALM 0 0 - - - - 9 Partly cloudy - 19.5 1014.7 0.8
08/02:29am CALM 0 0 - - - - 9 Partly cloudy - 19.5 1014.7 0.8
08/02:06am CALM 0 0 - - - - 10 Partly cloudy - 19.3 1014.8 0.2
08/02:00am CALM 0 0 - - - - 10 Partly cloudy - 19.4 1014.9 0.2
08/01:50am CALM 0 0 - - - - 10 Partly cloudy - 19.4 1014.9 0.2
08/01:38am CALM 0 0 - - - - 10 Partly cloudy - 19.2 1015.0 0.2
08/01:30am CALM 0 0 - - - - 10 Partly cloudy - 19.0 1015.1 0.2
08/01:18am W 3 3 - - - - 10 Partly cloudy - 18.9 1015.2 0.2
08/01:00am W 1 4 - - - - 10 Cloudy - 18.9 1015.4 0.2
08/12:35am CALM 0 0 - - - - 10 Partly cloudy - 18.7 1015.4 0.2
08/12:30am CALM 0 1 - - - - 10 Partly cloudy - 18.5 1015.4 0.2

Other formats

Comma delimited format used in spreadsheet applications
http://www.bom.gov.au/fwo/IDQ60701/IDQ60701.94280.axf

JavaScript Object Notation format (JSON) in row-major order
http://www.bom.gov.au/fwo/IDQ60701/IDQ60701.94280.json

Data quality

Most of these data are generated automatically and are frequently updated. Quality checks on data are not normally performed. It is possible for incorrect values to appear. Refer to information at About Latest Weather Observations and please check the disclaimer before using these data.